createdAt,value
2019-02-06T06:13:52.031Z,3
2019-02-06T06:19:22.370Z,7
2019-02-06T06:21:52.497Z,10
2019-02-06T06:24:22.607Z,13
2019-02-06T06:25:52.702Z,17
2019-02-06T06:26:52.796Z,20
2019-02-06T06:27:52.822Z,23
2019-02-06T06:28:52.902Z,27
2019-02-06T06:29:22.913Z,30
2019-02-06T06:30:22.975Z,33
2019-02-06T06:30:53.008Z,37
2019-02-06T06:31:23.079Z,40
2019-02-06T06:31:53.102Z,43
2019-02-06T06:32:23.327Z,47
2019-02-06T06:32:53.165Z,50
2019-02-06T06:33:23.195Z,53
2019-02-06T06:33:53.224Z,57
2019-02-06T06:34:23.271Z,60
2019-02-06T06:34:53.279Z,67
2019-02-06T06:35:23.439Z,70
2019-02-06T06:35:53.337Z,77
2019-02-06T06:36:23.394Z,83
2019-02-06T06:36:56.486Z,90
2019-02-06T06:37:23.453Z,97
2019-02-06T06:37:57.910Z,103
2019-02-06T06:38:23.537Z,110
2019-02-06T06:38:53.555Z,120
2019-02-06T06:39:23.566Z,127
2019-02-06T06:39:53.612Z,137
2019-02-06T06:40:23.635Z,147
2019-02-06T06:40:53.685Z,157
2019-02-06T06:41:23.703Z,167
2019-02-06T06:41:53.712Z,180
2019-02-06T06:42:24.300Z,190
2019-02-06T06:42:53.809Z,203
2019-02-06T06:43:23.822Z,213
2019-02-06T06:43:53.904Z,227
2019-02-06T06:44:23.876Z,237
2019-02-06T06:44:53.886Z,250
2019-02-06T06:45:23.934Z,263
2019-02-06T06:45:53.955Z,277
2019-02-06T06:46:23.996Z,290
2019-02-06T06:46:54.205Z,307
2019-02-06T06:47:24.061Z,320
2019-02-06T06:47:54.101Z,333
2019-02-06T06:48:24.142Z,350
2019-02-06T06:48:54.164Z,367
2019-02-06T06:49:24.185Z,383
2019-02-06T06:49:54.200Z,400
2019-02-06T06:50:24.247Z,417
2019-02-06T06:50:54.319Z,433
2019-02-06T06:51:24.336Z,453
2019-02-06T06:51:54.324Z,473
2019-02-06T06:52:24.337Z,493
2019-02-06T06:52:54.400Z,517
2019-02-06T06:53:24.500Z,540
2019-02-06T06:53:54.606Z,567
2019-02-06T06:54:24.488Z,590
2019-02-06T06:54:54.544Z,617
2019-02-06T06:55:24.545Z,640
2019-02-06T06:55:54.619Z,667
2019-02-06T06:56:24.606Z,693
2019-02-06T06:56:54.647Z,720
2019-02-06T06:57:24.668Z,750
2019-02-06T06:57:54.757Z,780
2019-02-06T06:58:24.777Z,810
2019-02-06T06:58:54.839Z,840
2019-02-06T06:59:24.809Z,870
2019-02-06T06:59:55.595Z,900
2019-02-06T07:00:24.889Z,930
2019-02-06T07:00:54.891Z,960
2019-02-06T07:01:24.928Z,987
2019-02-06T07:01:54.947Z,1017
2019-02-06T07:02:24.997Z,1047
2019-02-06T07:02:55.011Z,1070
2019-02-06T07:03:25.040Z,1100
2019-02-06T07:03:55.181Z,1130
2019-02-06T07:04:25.116Z,1167
2019-02-06T07:04:55.133Z,1207
2019-02-06T07:05:25.169Z,1253
2019-02-06T07:05:55.194Z,1300
2019-02-06T07:06:25.229Z,1353
2019-02-06T07:06:55.254Z,1407
2019-02-06T07:07:25.297Z,1460
2019-02-06T07:07:55.330Z,1510
2019-02-06T07:08:25.385Z,1563
2019-02-06T07:08:55.408Z,1610
2019-02-06T07:09:25.386Z,1657
2019-02-06T07:09:55.419Z,1693
2019-02-06T07:10:25.483Z,1727
2019-02-06T07:10:55.497Z,1760
2019-02-06T07:11:25.905Z,1793
2019-02-06T07:11:55.569Z,1833
2019-02-06T07:12:25.572Z,1877
2019-02-06T07:12:55.673Z,1920
2019-02-06T07:13:25.646Z,1967
2019-02-06T07:13:55.709Z,2010
2019-02-06T07:14:25.714Z,2053
2019-02-06T07:14:55.728Z,2097
2019-02-06T07:15:25.746Z,2137
2019-02-06T07:15:55.779Z,2177
2019-02-06T07:16:25.805Z,2217
2019-02-06T07:16:55.833Z,2263
2019-02-06T07:17:25.863Z,2310
2019-02-06T07:17:55.893Z,2353
2019-02-06T07:18:25.932Z,2403
2019-02-06T07:18:55.988Z,2453
2019-02-06T07:19:26.014Z,2507
2019-02-06T07:19:56.045Z,2560
2019-02-06T07:20:26.045Z,2610
2019-02-06T07:20:56.095Z,2663
2019-02-06T07:21:26.115Z,2720
2019-02-06T07:21:56.197Z,2773
2019-02-06T07:22:26.208Z,2830
2019-02-06T07:22:56.248Z,2890
2019-02-06T07:23:26.237Z,2950
2019-02-06T07:23:56.357Z,3013
2019-02-06T07:24:26.328Z,3080
2019-02-06T07:24:56.404Z,3153
2019-02-06T07:25:26.407Z,3227
2019-02-06T07:25:56.440Z,3303
2019-02-06T07:26:26.448Z,3383
2019-02-06T07:26:56.532Z,3457
2019-02-06T07:27:26.518Z,3530
2019-02-06T07:27:56.550Z,3607
2019-02-06T07:28:26.569Z,3680
2019-02-06T07:28:56.726Z,3760
2019-02-06T07:29:26.684Z,3840
2019-02-06T07:29:56.688Z,3917
2019-02-06T07:30:26.708Z,4000
2019-02-06T07:30:56.731Z,4080
2019-02-06T07:31:26.786Z,4167
2019-02-06T07:31:56.814Z,4260
2019-02-06T07:32:26.804Z,4347
2019-02-06T07:32:56.860Z,4447
2019-02-06T07:33:26.927Z,4547
2019-02-06T07:33:56.939Z,4650
2019-02-06T07:34:26.962Z,4757
2019-02-06T07:34:56.989Z,4873
2019-02-06T07:35:27.049Z,4987
2019-02-06T07:35:57.038Z,5100
2019-02-06T07:36:27.083Z,5200
2019-02-06T07:36:57.100Z,5297
2019-02-06T07:37:27.157Z,5380
2019-02-06T07:37:57.171Z,5460
2019-02-06T07:38:27.211Z,5543
2019-02-06T07:38:57.312Z,5620
2019-02-06T07:39:27.274Z,5720
2019-02-06T07:39:57.287Z,5843
2019-02-06T07:40:27.624Z,5987
2019-02-06T07:40:57.303Z,6133
2019-02-06T07:41:27.402Z,6213
2019-02-06T07:41:57.399Z,6243
2019-02-06T07:42:27.415Z,6297
2019-02-06T07:42:57.471Z,6360
2019-02-06T07:43:27.548Z,6437
2019-02-06T07:43:57.589Z,6510
2019-02-06T07:44:27.544Z,6563
2019-02-06T07:44:57.599Z,6610
2019-02-06T07:45:27.633Z,6633
2019-02-06T07:45:57.641Z,6657
2019-02-06T07:46:27.689Z,6643
2019-02-06T07:46:57.673Z,6633
2019-02-06T07:47:27.752Z,6643
2019-02-06T07:47:57.812Z,6657
2019-02-06T07:48:27.869Z,6667
2019-02-06T07:48:57.887Z,6683
2019-02-06T07:49:27.884Z,6693
2019-02-06T07:49:57.862Z,6707
2019-02-06T07:50:27.906Z,6723
2019-02-06T07:50:57.923Z,6737
2019-02-06T07:51:27.950Z,6747
2019-02-06T07:51:57.998Z,6763
2019-02-06T07:52:28.076Z,6767
2019-02-06T07:52:58.049Z,6763
2019-02-06T07:53:28.090Z,6757
2019-02-06T07:54:28.263Z,6740
2019-02-06T07:54:58.216Z,6697
2019-02-06T07:55:29.009Z,6630
2019-02-06T07:55:58.271Z,6563
2019-02-06T07:56:28.324Z,6527
2019-02-06T07:56:58.337Z,6517
2019-02-06T07:57:28.379Z,6527
2019-02-06T07:57:58.384Z,6547
2019-02-06T07:59:28.477Z,6570
2019-02-06T07:59:58.477Z,6627
2019-02-06T08:00:28.528Z,6623
2019-02-06T08:00:58.550Z,6740
2019-02-06T08:01:28.597Z,6837
2019-02-06T08:01:58.604Z,6833
2019-02-06T08:02:28.680Z,6740
2019-02-06T08:02:58.723Z,6727
2019-02-06T08:03:28.752Z,6790
2019-02-06T08:03:58.728Z,6853
2019-02-06T08:04:28.790Z,6927
2019-02-06T08:04:58.783Z,7033
2019-02-06T08:05:28.858Z,7210
2019-02-06T08:05:58.862Z,7463
2019-02-06T08:06:28.886Z,7747
2019-02-06T08:06:58.923Z,8023
2019-02-06T08:07:28.984Z,8257
2019-02-06T08:07:58.964Z,8427
2019-02-06T08:08:35.860Z,8470
2019-02-06T08:08:59.031Z,8540
2019-02-06T08:09:29.138Z,8597
2019-02-06T08:09:59.114Z,8233
2019-02-06T08:10:29.117Z,8173
2019-02-06T08:10:59.214Z,8337
2019-02-06T08:11:29.190Z,8713
2019-02-06T08:11:59.281Z,9013
2019-02-06T08:12:29.291Z,9030
2019-02-06T08:12:59.284Z,9000
2019-02-06T08:13:29.382Z,8847
2019-02-06T08:13:59.402Z,8617
2019-02-06T08:14:29.453Z,8407
2019-02-06T08:14:59.426Z,8117
2019-02-06T08:15:29.457Z,8150
2019-02-06T08:15:59.545Z,8277
2019-02-06T08:16:29.526Z,8457
2019-02-06T08:16:59.598Z,8747
2019-02-06T08:17:29.580Z,8690
2019-02-06T08:17:59.621Z,8290
2019-02-06T08:18:29.671Z,7633
2019-02-06T08:18:59.671Z,6980
2019-02-06T08:19:29.726Z,6793
2019-02-06T08:19:59.771Z,6750
2019-02-06T08:20:29.778Z,6707
2019-02-06T08:20:59.807Z,6647
2019-02-06T08:21:29.831Z,6513
2019-02-06T08:21:59.901Z,6337
2019-02-06T08:22:29.888Z,6297
2019-02-06T08:22:59.919Z,6387
2019-02-06T08:23:29.965Z,6497
2019-02-06T08:23:59.999Z,6607
2019-02-06T08:24:30.039Z,6823
2019-02-06T08:25:00.261Z,7260
2019-02-06T08:25:30.053Z,7957
2019-02-06T08:26:00.147Z,8933
2019-02-06T08:26:30.137Z,10013
2019-02-06T08:27:00.146Z,10703
2019-02-06T08:27:30.202Z,10970
2019-02-06T08:28:01.063Z,11093
2019-02-06T08:28:30.255Z,11260
2019-02-06T08:29:00.721Z,11197
2019-02-06T08:29:30.381Z,11427
2019-02-06T08:30:01.875Z,11527
2019-02-06T08:30:30.407Z,11633
2019-02-06T08:31:01.422Z,11140
2019-02-06T08:31:30.455Z,10470
2019-02-06T08:32:00.706Z,9863
2019-02-06T08:32:30.588Z,9540
2019-02-06T08:33:00.945Z,9180
2019-02-06T08:33:30.581Z,9177
2019-02-06T08:34:01.103Z,9747
2019-02-06T08:34:30.664Z,10397
2019-02-06T08:35:01.823Z,10787
2019-02-06T08:35:30.707Z,10890
2019-02-06T08:36:02.539Z,10920
2019-02-06T08:36:30.771Z,10963
2019-02-06T08:37:01.369Z,11037
2019-02-06T08:37:30.816Z,11217
2019-02-06T08:38:01.471Z,11307
2019-02-06T08:38:30.877Z,11140
2019-02-06T08:39:01.496Z,11077
2019-02-06T08:39:30.966Z,11337
2019-02-06T08:40:01.737Z,11640
2019-02-06T08:40:30.999Z,12093
2019-02-06T08:41:01.092Z,12467
2019-02-06T08:41:31.086Z,13450
2019-02-06T08:42:01.757Z,14150
2019-02-06T08:42:31.129Z,14520
2019-02-06T08:43:01.134Z,14980
2019-02-06T08:43:31.181Z,15667
2019-02-06T08:44:01.926Z,16527
2019-02-06T08:44:31.373Z,16977
2019-02-06T08:45:01.280Z,17257
2019-02-06T08:45:31.330Z,17560
2019-02-06T08:46:01.405Z,17993
2019-02-06T08:46:31.386Z,18187
2019-02-06T08:47:01.511Z,18453
2019-02-06T08:47:31.446Z,18733
2019-02-06T08:48:01.452Z,19197
2019-02-06T08:48:31.494Z,19633
2019-02-06T08:49:01.482Z,19963
2019-02-06T08:49:31.626Z,20250
2019-02-06T08:50:01.810Z,20670
2019-02-06T08:50:31.779Z,21010
2019-02-06T08:51:01.606Z,20697
2019-02-06T08:51:31.750Z,20577
2019-02-06T08:52:01.675Z,21763
2019-02-06T08:52:31.756Z,22050
2019-02-06T08:53:01.777Z,22490
2019-02-06T08:53:31.765Z,22997
2019-02-06T08:54:01.793Z,23577
2019-02-06T08:54:31.857Z,23990
2019-02-06T08:55:01.860Z,23853
2019-02-06T08:55:31.922Z,23927
2019-02-06T08:56:02.221Z,25273
2019-02-06T08:56:31.950Z,25780
2019-02-06T08:57:02.477Z,26417
2019-02-06T08:57:32.009Z,27010
2019-02-06T08:58:02.044Z,27533
2019-02-06T08:58:32.249Z,27620
2019-02-06T08:59:02.099Z,27520
2019-02-06T08:59:32.265Z,27420
2019-02-06T09:00:02.158Z,27540
2019-02-06T09:00:32.220Z,27543
2019-02-06T09:01:02.252Z,27250
2019-02-06T09:01:32.328Z,26650
2019-02-06T09:02:02.373Z,25673
2019-02-06T09:02:32.357Z,26160
2019-02-06T09:03:02.375Z,26443
2019-02-06T09:03:32.391Z,26917
2019-02-06T09:04:02.480Z,27227
2019-02-06T09:04:32.694Z,27847
2019-02-06T09:05:02.550Z,28680
2019-02-06T09:05:32.569Z,28747
2019-02-06T09:06:02.582Z,29133
2019-02-06T09:06:32.636Z,29013
2019-02-06T09:07:02.640Z,29350
2019-02-06T09:07:32.621Z,29307
2019-02-06T09:08:02.713Z,29483
2019-02-06T09:08:32.750Z,29553
2019-02-06T09:09:02.762Z,29360
2019-02-06T09:09:32.912Z,29187
2019-02-06T09:10:02.818Z,29270
2019-02-06T09:10:32.849Z,29410
2019-02-06T09:11:02.907Z,29043
2019-02-06T09:11:32.904Z,29010
2019-02-06T09:12:02.972Z,30443
2019-02-06T09:12:32.989Z,31393
2019-02-06T09:13:03.029Z,31710
2019-02-06T09:13:33.021Z,31800
2019-02-06T09:14:03.108Z,31527
2019-02-06T09:14:33.108Z,31727
2019-02-06T09:15:03.147Z,31417
2019-02-06T09:15:33.147Z,31210
2019-02-06T09:16:03.371Z,31280
2019-02-06T09:16:33.206Z,31320
2019-02-06T09:17:03.239Z,31223
2019-02-06T09:17:33.266Z,30800
2019-02-06T09:18:03.292Z,29967
2019-02-06T09:18:33.332Z,30447
2019-02-06T09:19:33.459Z,28903
2019-02-06T09:20:03.435Z,28460
2019-02-06T09:20:33.443Z,28760
2019-02-06T09:21:03.461Z,28647
2019-02-06T09:21:33.525Z,28677
2019-02-06T09:22:03.581Z,28587
2019-02-06T09:22:33.579Z,27803
2019-02-06T09:23:03.580Z,27017
2019-02-06T09:23:33.627Z,26313
2019-02-06T09:24:03.699Z,27127
2019-02-06T09:24:33.714Z,28703
2019-02-06T09:25:03.757Z,30080
2019-02-06T09:25:33.761Z,30933
2019-02-06T09:26:03.840Z,31377
2019-02-06T09:26:36.119Z,31447
2019-02-06T09:27:03.884Z,31773
2019-02-06T09:27:33.878Z,32813
2019-02-06T09:28:03.947Z,33130
2019-02-06T09:28:33.964Z,32570
2019-02-06T09:29:03.981Z,32557
2019-02-06T09:29:34.047Z,32330
2019-02-06T09:30:04.009Z,31533
2019-02-06T09:30:34.185Z,29927
2019-02-06T09:31:04.130Z,30240
2019-02-06T09:31:34.145Z,29843
2019-02-06T09:32:04.132Z,29163
2019-02-06T09:32:34.214Z,28640
2019-02-06T09:33:34.273Z,27780
2019-02-06T09:34:04.290Z,26913
2019-02-06T09:34:34.405Z,25980
2019-02-06T09:35:04.375Z,25333
2019-02-06T09:35:34.583Z,24760
2019-02-06T09:36:04.423Z,24153
2019-02-06T09:36:34.416Z,24130
2019-02-06T09:37:05.107Z,23910
2019-02-06T09:37:34.532Z,23560
2019-02-06T09:38:04.502Z,23503
2019-02-06T09:38:34.587Z,23093
2019-02-06T09:39:11.433Z,22643
2019-02-06T09:39:34.678Z,22417
2019-02-06T09:40:04.647Z,22007
2019-02-06T09:40:34.666Z,21973
2019-02-06T09:41:04.722Z,22017
2019-02-06T09:41:34.712Z,22027
2019-02-06T09:42:04.752Z,21870
2019-02-06T09:42:34.779Z,21830
2019-02-06T09:43:04.832Z,21907
2019-02-06T09:43:34.864Z,22067
2019-02-06T09:44:04.868Z,22107
2019-02-06T09:44:34.913Z,22087
2019-02-06T09:45:04.932Z,22063
2019-02-06T09:45:34.959Z,21997
2019-02-06T09:46:05.015Z,21877
2019-02-06T09:46:35.044Z,21913
2019-02-06T09:47:35.092Z,22067
2019-02-06T09:48:05.166Z,22253
2019-02-06T09:48:35.166Z,22420
2019-02-06T09:49:05.212Z,22363
2019-02-06T09:49:35.232Z,22447
2019-02-06T09:50:05.286Z,22400
2019-02-06T09:50:35.336Z,22673
2019-02-06T09:51:05.351Z,22827
2019-02-06T09:51:35.358Z,23047
2019-02-06T09:52:05.398Z,22990
2019-02-06T09:52:35.480Z,22960
2019-02-06T09:53:05.479Z,22827
2019-02-06T09:53:35.482Z,22567
2019-02-06T09:54:05.549Z,22723
2019-02-06T09:54:35.581Z,22860
2019-02-06T09:55:05.606Z,22940
2019-02-06T09:55:35.660Z,23107
2019-02-06T09:56:05.641Z,23247
2019-02-06T09:56:35.690Z,23323
2019-02-06T09:57:05.705Z,23420
2019-02-06T09:57:35.760Z,23477
2019-02-06T09:58:05.814Z,23553
2019-02-06T09:58:35.826Z,23697
2019-02-06T09:59:05.831Z,23627
2019-02-06T09:59:35.852Z,23683
2019-02-06T10:00:05.899Z,23690
2019-02-06T10:00:35.910Z,23603
2019-02-06T10:01:05.977Z,23490
2019-02-06T10:01:36.007Z,23370
2019-02-06T10:02:06.047Z,23257
2019-02-06T10:03:06.145Z,23227
2019-02-06T10:03:36.131Z,23247
2019-02-06T10:04:06.137Z,23177
2019-02-06T10:04:36.133Z,23087
2019-02-06T10:05:06.201Z,23040
2019-02-06T10:05:36.200Z,22993
2019-02-06T10:06:06.251Z,23037
2019-02-06T10:06:36.300Z,23097
2019-02-06T10:07:06.317Z,23157
2019-02-06T10:07:36.341Z,23130
2019-02-06T10:08:06.387Z,23187
2019-02-06T10:08:36.415Z,23237
2019-02-06T10:09:06.449Z,23263
2019-02-06T10:09:36.491Z,23340
2019-02-06T10:10:06.496Z,23403
2019-02-06T10:10:36.500Z,23473
2019-02-06T10:11:06.572Z,23560
2019-02-06T10:11:36.620Z,23643
2019-02-06T10:12:06.634Z,23697
2019-02-06T10:12:36.674Z,23720
2019-02-06T10:13:36.745Z,23697
2019-02-06T10:14:06.773Z,23673
2019-02-06T10:14:36.797Z,23630
2019-02-06T10:15:06.777Z,23577
2019-02-06T10:15:36.858Z,23493
2019-02-06T10:16:06.880Z,23387
2019-02-06T10:16:36.949Z,23293
2019-02-06T10:17:06.960Z,23200
2019-02-06T10:17:37.035Z,23103
2019-02-06T10:18:06.993Z,23023
2019-02-06T10:18:37.032Z,22940
2019-02-06T10:19:07.018Z,22873
2019-02-06T10:19:37.090Z,22810
2019-02-06T10:20:07.110Z,22740
2019-02-06T10:20:37.202Z,22683
2019-02-06T10:21:07.194Z,22630
2019-02-06T10:21:37.252Z,22587
2019-02-06T10:22:07.252Z,22537
2019-02-06T10:22:37.260Z,22503
2019-02-06T10:23:07.332Z,22470
2019-02-06T10:23:37.375Z,22430
2019-02-06T10:24:07.368Z,22400
2019-02-06T10:24:37.414Z,22363
2019-02-06T10:25:07.409Z,22327
2019-02-06T10:25:37.522Z,22290
2019-02-06T10:26:07.566Z,22263
2019-02-06T10:26:37.553Z,22237
2019-02-06T10:27:07.511Z,22203
2019-02-06T10:27:37.566Z,22157
2019-02-06T10:28:07.582Z,22100
2019-02-06T10:28:37.650Z,22057
2019-02-06T10:29:07.672Z,22013
2019-02-06T10:29:37.720Z,21977
2019-02-06T10:30:07.718Z,21967
2019-02-06T10:30:37.734Z,21960
2019-02-06T10:31:07.770Z,21943
2019-02-06T10:31:37.791Z,21927
2019-02-06T10:32:07.823Z,21890
2019-02-06T10:32:37.878Z,21870
2019-02-06T10:33:07.894Z,21847
2019-02-06T10:33:37.917Z,21810
2019-02-06T10:34:07.975Z,21767
2019-02-06T10:34:37.981Z,21713
2019-02-06T10:35:08.049Z,21650
2019-02-06T10:35:38.055Z,21570
2019-02-06T10:36:08.064Z,21463
2019-02-06T10:36:38.131Z,21343
2019-02-06T10:37:08.177Z,21227
2019-02-06T10:37:38.237Z,21120
2019-02-06T10:38:08.216Z,21000
2019-02-06T10:38:38.269Z,20887
2019-02-06T10:39:08.251Z,20780
2019-02-06T10:39:38.311Z,20673
2019-02-06T10:40:08.368Z,20587
2019-02-06T10:40:38.401Z,20510
2019-02-06T10:41:08.401Z,20437
2019-02-06T10:41:38.462Z,20380
2019-02-06T10:42:08.488Z,20340
2019-02-06T10:42:38.493Z,20320
2019-02-06T10:43:08.531Z,20323
2019-02-06T10:43:38.597Z,20333
2019-02-06T10:44:08.628Z,20353
2019-02-06T10:44:38.658Z,20380
2019-02-06T10:45:08.620Z,20410
2019-02-06T10:45:38.745Z,20443
2019-02-06T10:46:08.732Z,20477
2019-02-06T10:46:38.772Z,20493
2019-02-06T10:47:08.786Z,20513
2019-02-06T10:47:38.786Z,20527
2019-02-06T10:48:08.853Z,20523
2019-02-06T10:48:38.894Z,20517
2019-02-06T10:49:08.867Z,20507
2019-02-06T10:49:38.964Z,20493
2019-02-06T10:50:08.933Z,20490
2019-02-06T10:50:39.017Z,20500
2019-02-06T10:51:09.030Z,20520
2019-02-06T10:51:39.043Z,20547
2019-02-06T10:52:09.087Z,20577
2019-02-06T10:52:39.132Z,20603
2019-02-06T10:53:09.151Z,20637
2019-02-06T10:53:39.206Z,20660
2019-02-06T10:54:09.208Z,20683
2019-02-06T10:54:39.259Z,20697
2019-02-06T10:55:09.234Z,20713
2019-02-06T10:55:39.427Z,20717
2019-02-06T10:56:09.343Z,20710
2019-02-06T10:56:39.343Z,20697
2019-02-06T10:57:10.158Z,20667
2019-02-06T10:57:39.546Z,20630
2019-02-06T10:58:09.423Z,20613
2019-02-06T10:58:39.460Z,20607
2019-02-06T10:59:09.530Z,20600
2019-02-06T10:59:39.576Z,20603
2019-02-06T11:00:09.587Z,20617
2019-02-06T11:00:39.619Z,20627
2019-02-06T11:01:09.644Z,20673
2019-02-06T11:01:39.681Z,20717
2019-02-06T11:02:09.716Z,20773
2019-02-06T11:02:39.767Z,20830
2019-02-06T11:03:09.800Z,20880
2019-02-06T11:03:39.804Z,20930
2019-02-06T11:04:09.829Z,20970
2019-02-06T11:04:39.869Z,21007
2019-02-06T11:05:09.852Z,21037
2019-02-06T11:05:39.932Z,21080
2019-02-06T11:06:09.949Z,21120
2019-02-06T11:06:40.048Z,21150
2019-02-06T11:07:10.281Z,21167
2019-02-06T11:07:40.028Z,21187
2019-02-06T11:08:10.073Z,21203
2019-02-06T11:08:40.067Z,21220
2019-02-06T11:09:10.145Z,21230
2019-02-06T11:10:10.236Z,21237
2019-02-06T11:10:40.243Z,21240
2019-02-06T11:11:10.266Z,21230
2019-02-06T11:12:10.319Z,21237
2019-02-06T11:12:40.342Z,21267
2019-02-06T11:13:10.379Z,21320
2019-02-06T11:13:40.372Z,21350
2019-02-06T11:14:10.421Z,21393
2019-02-06T11:14:40.476Z,21443
2019-02-06T11:15:10.483Z,21493
2019-02-06T11:15:40.496Z,21547
2019-02-06T11:16:10.538Z,21593
2019-02-06T11:16:40.581Z,21637
2019-02-06T11:17:10.761Z,21720
2019-02-06T11:17:40.707Z,21793
2019-02-06T11:18:10.673Z,21843
2019-02-06T11:18:40.706Z,21903
2019-02-06T11:19:10.751Z,21983
2019-02-06T11:19:42.968Z,22073
2019-02-06T11:20:10.814Z,22157
2019-02-06T11:20:40.821Z,22227
2019-02-06T11:21:10.856Z,22303
2019-02-06T11:21:40.920Z,22383
2019-02-06T11:22:10.900Z,22453
2019-02-06T11:22:41.035Z,22503
2019-02-06T11:23:10.977Z,22513
2019-02-06T11:23:41.040Z,22493
2019-02-06T11:24:11.063Z,22490
2019-02-06T11:24:41.058Z,22487
2019-02-06T11:25:11.092Z,22500
2019-02-06T11:25:41.118Z,22457
2019-02-06T11:26:11.161Z,22423
2019-02-06T11:26:41.203Z,22397
2019-02-06T11:27:11.222Z,22347
2019-02-06T11:27:41.286Z,22313
2019-02-06T11:28:11.297Z,22300
2019-02-06T11:28:41.349Z,22283
2019-02-06T11:29:11.349Z,22270
2019-02-06T11:29:41.386Z,22247
2019-02-06T11:30:11.415Z,22233
2019-02-06T11:30:41.461Z,22220
2019-02-06T11:31:11.512Z,22197
2019-02-06T11:31:41.518Z,22153
2019-02-06T11:32:11.572Z,22127
2019-02-06T11:32:41.651Z,22137
2019-02-06T11:33:11.750Z,22163
2019-02-06T11:33:41.604Z,22167
2019-02-06T11:34:11.696Z,22147
2019-02-06T11:34:41.727Z,22140
2019-02-06T11:35:41.757Z,22167
2019-02-06T11:36:23.529Z,22193
2019-02-06T11:36:41.861Z,22250
2019-02-06T11:37:11.876Z,22293
2019-02-06T11:37:41.882Z,22340
2019-02-06T11:38:11.902Z,22403
2019-02-06T11:38:41.922Z,22473
2019-02-06T11:39:12.003Z,22543
2019-02-06T11:39:42.018Z,22620
2019-02-06T11:40:12.055Z,22690
2019-02-06T11:40:42.072Z,22727
2019-02-06T11:41:12.108Z,22760
2019-02-06T11:41:42.130Z,22803
2019-02-06T11:42:12.191Z,22830
2019-02-06T11:42:42.244Z,22853
2019-02-06T11:43:12.261Z,22890
2019-02-06T11:43:42.326Z,22917
2019-02-06T11:44:12.313Z,22933
2019-02-06T11:44:42.283Z,22970
2019-02-06T11:45:12.372Z,22957
2019-02-06T11:45:42.364Z,22933
2019-02-06T11:46:12.434Z,22937
2019-02-06T11:46:42.431Z,22897
2019-02-06T11:47:12.525Z,22833
2019-02-06T11:47:42.591Z,22820
2019-02-06T11:48:12.539Z,22780
2019-02-06T11:48:43.383Z,22837
2019-02-06T11:49:42.675Z,22947
2019-02-06T11:50:12.660Z,23063
2019-02-06T11:50:42.738Z,23177
2019-02-06T11:51:12.686Z,23253
2019-02-06T11:51:42.766Z,23197
2019-02-06T11:52:12.786Z,23257
2019-02-06T11:52:42.859Z,23380
2019-02-06T11:53:12.901Z,23487
2019-02-06T11:53:42.873Z,23573
2019-02-06T11:54:12.935Z,23633
2019-02-06T11:54:42.947Z,23803
2019-02-06T11:55:13.166Z,23887
2019-02-06T11:55:43.006Z,23940
2019-02-06T11:56:13.034Z,24017
2019-02-06T11:56:43.065Z,24047
2019-02-06T11:57:13.089Z,23917
2019-02-06T11:57:43.156Z,24187
2019-02-06T11:58:13.123Z,24497
2019-02-06T11:58:43.195Z,24950
2019-02-06T11:59:13.170Z,25543
2019-02-06T11:59:43.257Z,24530
2019-02-06T12:00:13.268Z,24493
2019-02-06T12:00:43.317Z,25307
2019-02-06T12:01:13.346Z,25743
2019-02-06T12:01:43.384Z,26087
2019-02-06T12:02:13.454Z,26383
2019-02-06T12:02:43.507Z,27090
2019-02-06T12:03:13.438Z,26640
2019-02-06T12:03:43.510Z,27020
2019-02-06T12:04:13.495Z,26800
2019-02-06T12:04:43.518Z,25953
2019-02-06T12:05:13.561Z,25383
2019-02-06T12:05:43.586Z,25210
2019-02-06T12:06:13.617Z,25267
2019-02-06T12:06:43.707Z,24960
2019-02-06T12:07:13.675Z,24787
2019-02-06T12:07:43.733Z,24827
2019-02-06T12:08:13.759Z,24640
2019-02-06T12:08:43.756Z,24830
2019-02-06T12:09:13.820Z,25100
2019-02-06T12:09:43.830Z,25823
2019-02-06T12:10:13.871Z,26470
2019-02-06T12:10:43.875Z,26667
2019-02-06T12:11:13.957Z,27137
2019-02-06T12:11:44.040Z,27873
2019-02-06T12:12:13.970Z,28340
2019-02-06T12:12:44.094Z,27260
2019-02-06T12:13:14.082Z,26420
2019-02-06T12:13:44.101Z,26743
2019-02-06T12:14:14.100Z,27163
2019-02-06T12:14:44.180Z,27907
2019-02-06T12:15:14.158Z,26003
2019-02-06T12:15:44.215Z,26200
2019-02-06T12:16:14.251Z,27947
2019-02-06T12:16:44.342Z,26173
2019-02-06T12:17:14.301Z,26987
2019-02-06T12:17:44.624Z,27700
2019-02-06T12:18:14.400Z,29240
2019-02-06T12:18:44.478Z,29143
2019-02-06T12:19:14.458Z,28700
2019-02-06T12:19:44.542Z,29117
2019-02-06T12:20:14.549Z,29137
2019-02-06T12:20:44.556Z,29350
2019-02-06T12:21:14.609Z,29143
2019-02-06T12:21:44.642Z,29150
2019-02-06T12:22:14.676Z,29027
2019-02-06T12:22:44.706Z,29143
2019-02-06T12:23:14.709Z,28860
2019-02-06T12:23:44.746Z,28800
2019-02-06T12:24:14.762Z,28733
2019-02-06T12:24:44.845Z,28283
2019-02-06T12:25:14.823Z,27403
2019-02-06T12:25:44.871Z,25637
2019-02-06T12:26:14.882Z,24480
2019-02-06T12:26:44.888Z,23737
2019-02-06T12:27:14.941Z,23383
2019-02-06T12:27:44.993Z,23157
2019-02-06T12:28:14.978Z,22920
2019-02-06T12:28:45.064Z,22457
2019-02-06T12:29:15.106Z,21977
2019-02-06T12:29:45.120Z,21677
2019-02-06T12:30:15.131Z,21503
2019-02-06T12:30:45.114Z,21243
2019-02-06T12:31:15.202Z,21537
2019-02-06T12:31:45.237Z,21287
2019-02-06T12:32:15.258Z,22313
2019-02-06T12:32:52.080Z,23073
2019-02-06T12:33:15.408Z,21700
2019-02-06T12:33:45.320Z,21183
2019-02-06T12:34:15.370Z,21893
2019-02-06T12:34:45.393Z,22297
2019-02-06T12:35:15.432Z,21757
2019-02-06T12:35:45.432Z,22060
2019-02-06T12:36:15.914Z,23060
2019-02-06T12:36:45.552Z,22887
2019-02-06T12:37:15.592Z,22377
2019-02-06T12:37:45.672Z,24433
2019-02-06T12:38:15.634Z,26073
2019-02-06T12:38:52.969Z,25837
2019-02-06T12:39:15.678Z,23753
2019-02-06T12:39:45.692Z,23843
2019-02-06T12:40:21.353Z,24657
2019-02-06T12:40:45.813Z,25603
2019-02-06T12:41:15.794Z,25710
2019-02-06T12:41:45.798Z,25270
2019-02-06T12:42:15.823Z,24850
2019-02-06T12:42:45.921Z,23767
2019-02-06T12:43:15.929Z,23783
2019-02-06T12:43:45.982Z,22487
2019-02-06T12:44:15.990Z,22257
2019-02-06T12:44:46.034Z,21793
2019-02-06T12:45:16.054Z,21810
2019-02-06T12:45:46.114Z,20793
2019-02-06T12:46:16.123Z,20593
2019-02-06T12:46:46.189Z,20903
2019-02-06T12:47:16.169Z,21707
2019-02-06T12:47:46.303Z,21757
2019-02-06T12:48:16.231Z,21660
2019-02-06T12:48:46.266Z,21327
2019-02-06T12:49:16.296Z,21140
2019-02-06T12:49:46.362Z,21517
2019-02-06T12:50:16.361Z,21997
2019-02-06T12:50:46.368Z,22150
2019-02-06T12:51:16.421Z,24073
2019-02-06T12:51:46.535Z,24620
2019-02-06T12:52:16.477Z,22907
2019-02-06T12:52:46.538Z,22077
2019-02-06T12:53:16.534Z,21617
2019-02-06T12:53:46.599Z,21213
2019-02-06T12:54:16.561Z,21353
2019-02-06T12:54:46.717Z,21503
2019-02-06T12:55:19.473Z,21863
2019-02-06T12:55:46.721Z,22023
2019-02-06T12:56:16.687Z,21853
2019-02-06T12:56:46.717Z,21917
2019-02-06T12:57:16.745Z,22373
2019-02-06T12:57:46.848Z,22297
2019-02-06T12:58:17.091Z,21363
2019-02-06T12:58:46.970Z,20953
2019-02-06T12:59:16.999Z,20840
2019-02-06T12:59:46.954Z,20813
2019-02-06T13:00:16.933Z,20810
2019-02-06T13:00:46.964Z,20817
2019-02-06T13:01:16.990Z,20827
2019-02-06T13:01:47.049Z,20843
2019-02-06T13:02:17.071Z,20867
2019-02-06T13:02:47.145Z,20890
2019-02-06T13:03:17.163Z,20863
2019-02-06T13:03:47.173Z,20813